Time;durP1;ratioP1;P1;durP2;ratioP2;P2;SDS_P1;SDS_P2;PMS_P1;PMS_P2;Temp;Humidity;BMP_temperature;BMP_pressure;BME280_temperature;BME280_humidity;BME280_pressure;Samples;Min_cycle;Max_cycle;Signal;HPM_P1;HPM_P2
2023/01/15 16:21:57;;;;;;;12.68;1.30;;;;;;;2.85;100.00;98739.31;5052506;28;20863;-95
2023/01/15 16:24:30;;;;;;;9.00;1.55;;;;;;;3.04;100.00;98767.19;5052309;28;20036;-96
2023/01/15 16:27:14;;;;;;;16.45;2.40;;;;;;;3.05;100.00;98765.47;5042472;28;20111;-95
2023/01/15 16:29:55;;;;;;;12.60;2.53;;;;;;;3.18;100.00;98759.63;5022046;28;20030;-96
2023/01/15 16:32:47;;;;;;;15.88;1.73;;;;;;;3.19;100.00;98761.28;5016180;28;20488;-96
2023/01/15 16:36:06;;;;;;;21.65;2.67;;;;;;;3.34;100.00;98762.19;5030198;28;20026;-95
2023/01/15 16:38:44;;;;;;;19.83;3.45;;;;;;;3.19;100.00;98727.31;5019166;28;20041;-96
2023/01/15 16:41:27;;;;;;;17.80;2.78;;;;;;;3.32;100.00;98748.69;5017700;28;20040;-96
2023/01/15 16:43:56;;;;;;;17.13;2.42;;;;;;;3.20;100.00;98734.06;5009545;28;20042;-96
2023/01/15 16:46:37;;;;;;;18.27;1.98;;;;;;;3.08;100.00;98735.56;5009386;28;20026;-95
2023/01/15 16:49:30;;;;;;;20.50;2.10;;;;;;;3.24;100.00;98750.00;5009693;28;20045;-95
2023/01/15 16:52:09;;;;;;;18.77;2.78;;;;;;;3.19;100.00;98753.66;4909395;28;20046;-95
2023/01/15 16:54:55;;;;;;;20.05;2.42;;;;;;;3.12;100.00;98761.69;5004290;28;20026;-95
2023/01/15 16:57:33;;;;;;;25.05;7.38;;;;;;;3.15;100.00;98726.66;5003850;28;20034;-95
2023/01/15 17:00:31;;;;;;;19.15;2.60;;;;;;;3.37;100.00;98733.16;5010102;28;20025;-96
2023/01/15 17:15:22;;;;;;;18.92;2.08;;;;;;;3.11;100.00;98703.97;4993040;28;20061;-96
2023/01/15 17:18:26;;;;;;;16.27;3.17;;;;;;;3.16;100.00;98702.00;4974940;28;20088;-96
2023/01/15 17:21:20;;;;;;;31.42;4.47;;;;;;;2.93;100.00;98693.88;4960000;28;20047;-96
2023/01/15 17:24:07;;;;;;;21.42;3.58;;;;;;;2.93;100.00;98711.72;4977990;28;20087;-96
2023/01/15 17:26:38;;;;;;;16.35;2.85;;;;;;;2.89;100.00;98705.13;4963663;29;20471;-96
2023/01/15 17:29:12;;;;;;;18.85;3.72;;;;;;;2.87;100.00;98689.09;4962005;28;20020;-96
2023/01/15 17:31:42;;;;;;;21.98;3.30;;;;;;;2.86;100.00;98715.50;4952412;28;20028;-96
2023/01/15 17:34:09;;;;;;;29.88;3.95;;;;;;;2.82;100.00;98703.81;4950987;29;20075;-96
2023/01/15 17:36:40;;;;;;;25.40;2.63;;;;;;;2.81;100.00;98671.59;4950736;29;20031;-96
2023/01/15 17:40:02;;;;;;;;;;;;;;;;;;;;;
2023/01/15 17:43:10;;;;;;;;;;;;;;;;;;;;;
2023/01/15 17:46:02;;;;;;;12.50;2.05;;;;;;;2.99;100.00;98662.13;4977810;28;20107;-96
2023/01/15 18:08:51;;;;;;;42.42;13.52;;;;;;;2.98;100.00;98617.19;5834436;23;20127;-96
2023/01/15 18:15:56;;;;;;;;;;;;;;;;;;;;;
2023/01/15 18:18:52;;;;;;;19.65;2.63;;;;;;;3.09;100.00;98619.13;4885980;29;20248;-96
2023/01/15 18:22:17;;;;;;;20.00;3.10;;;;;;;3.10;100.00;98605.47;4889881;29;20049;-96
2023/01/15 18:24:41;;;;;;;11.25;1.95;;;;;;;3.20;100.00;98624.44;4913227;29;20115;-96
2023/01/15 18:27:33;;;;;;;17.13;2.97;;;;;;;2.85;100.00;98600.91;4945491;29;20039;-96
2023/01/15 18:34:19;;;;;;;21.13;2.83;;;;;;;3.14;100.00;98596.75;4902092;29;20375;-96
2023/01/15 18:53:29;;;;;;;26.35;3.72;;;;;;;2.39;100.00;98555.88;5031049;23;20048;-95
2023/01/15 19:07:49;;;;;;;20.63;3.72;;;;;;;2.22;100.00;98520.31;5137839;27;20376;-95
2023/01/15 19:10:21;;;;;;;32.00;7.43;;;;;;;2.31;100.00;98541.00;5132648;27;20042;-95
2023/01/15 19:12:47;;;;;;;19.02;3.72;;;;;;;2.07;100.00;98520.25;5131508;27;20047;-94
2023/01/15 19:20:58;;;;;;;25.80;5.43;;;;;;;2.09;100.00;98480.25;5127003;27;20043;-95
2023/01/15 19:23:24;;;;;;;28.90;5.80;;;;;;;2.13;100.00;98481.72;5123943;28;20028;-94
2023/01/15 19:25:50;;;;;;;31.05;8.43;;;;;;;2.09;100.00;98464.97;5120217;27;20034;-94
2023/01/15 19:28:18;;;;;;;27.50;7.82;;;;;;;2.11;100.00;98452.19;5111140;28;20470;-95
2023/01/15 19:31:34;;;;;;;35.53;9.48;;;;;;;2.01;100.00;98448.50;5110078;28;20024;-94
2023/01/15 19:33:34;;;;;;;20.15;8.05;;;;;;;1.89;100.00;98468.59;5122568;27;20035;-95
2023/01/15 19:35:59;;;;;;;15.80;4.00;;;;;;;1.83;100.00;98458.78;5129036;27;20023;-93
2023/01/15 19:38:25;;;;;;;14.55;4.40;;;;;;;1.56;100.00;98422.94;5113041;27;20055;-94
2023/01/15 19:40:51;;;;;;;26.20;4.78;;;;;;;1.76;100.00;98442.19;5107994;28;20126;-95
2023/01/15 19:54:54;;;;;;;16.38;2.58;;;;;;;1.94;100.00;98404.75;5118353;27;20089;-93
2023/01/15 19:57:00;;;;;;;23.98;3.33;;;;;;;1.95;100.00;98386.03;5117117;27;20500;-94
2023/01/15 19:59:25;;;;;;;13.70;2.25;;;;;;;1.99;100.00;98397.69;5108871;28;20100;-95
2023/01/15 20:01:51;;;;;;;26.88;4.35;;;;;;;2.11;100.00;98407.19;5121546;27;20031;-94
2023/01/15 20:04:16;;;;;;;15.55;3.80;;;;;;;2.00;100.00;98383.25;5121284;27;20457;-95
2023/01/15 20:06:45;;;;;;;17.60;3.20;;;;;;;1.92;100.00;98355.69;5117426;27;20139;-96
2023/01/15 20:09:10;;;;;;;14.57;2.90;;;;;;;1.95;100.00;98357.25;5108793;28;20020;-94
2023/01/15 20:13:47;;;;;;;19.40;2.95;;;;;;;2.01;100.00;98375.53;5094837;28;20516;-94
2023/01/15 20:14:21;;;;;;;13.95;3.17;;;;;;;1.84;100.00;98342.59;5115827;28;20492;-94
2023/01/15 20:16:47;;;;;;;10.88;2.30;;;;;;;1.96;100.00;98366.53;5104707;28;20035;-94
2023/01/15 20:19:12;;;;;;;11.55;3.50;;;;;;;1.82;100.00;98359.66;5094788;28;20028;-93
2023/01/15 20:21:38;;;;;;;30.33;8.52;;;;;;;1.72;100.00;98359.34;5114074;28;20024;-93
2023/01/15 20:24:03;;;;;;;17.15;7.10;;;;;;;1.60;100.00;98320.13;5098233;27;20129;-93
2023/01/15 20:26:29;;;;;;;20.60;5.30;;;;;;;1.41;100.00;98307.59;5058731;28;20458;-94
2023/01/15 20:28:54;;;;;;;16.75;5.70;;;;;;;1.63;100.00;98314.06;5069441;28;20025;-94
2023/01/15 20:31:20;;;;;;;17.95;4.55;;;;;;;1.63;100.00;98292.00;5054866;28;20055;-94
2023/01/15 20:33:46;;;;;;;25.77;10.98;;;;;;;1.89;100.00;98299.91;5056290;28;20360;-92
2023/01/15 20:36:12;;;;;;;15.80;6.50;;;;;;;1.77;100.00;98272.63;5069105;28;20087;-93
2023/01/15 20:38:38;;;;;;;35.30;10.48;;;;;;;1.74;100.00;98271.06;5064042;28;20024;-93
2023/01/15 20:46:36;;;;;;;21.48;8.13;;;;;;;1.55;100.00;98233.13;5066542;28;20471;-93
2023/01/15 20:51:46;;;;;;;16.27;7.07;;;;;;;1.57;100.00;98231.31;5062933;28;20390;-93
2023/01/15 20:54:12;;;;;;;15.15;5.47;;;;;;;1.50;100.00;98213.06;5066466;28;20033;-94
2023/01/15 20:56:38;;;;;;;12.85;4.78;;;;;;;1.46;100.00;98200.59;5061375;28;20033;-93
2023/01/15 20:59:03;;;;;;;19.73;6.50;;;;;;;1.44;100.00;98192.22;5060891;28;20086;-93
2023/01/15 21:01:29;;;;;;;14.20;5.22;;;;;;;1.39;100.00;98178.97;5065367;28;20029;-93
2023/01/15 21:03:54;;;;;;;15.60;4.95;;;;;;;1.42;100.00;98169.47;5063336;28;20020;-93
2023/01/15 21:06:20;;;;;;;15.23;4.00;;;;;;;1.41;100.00;98156.81;5067793;28;20120;-92
2023/01/15 21:08:46;;;;;;;7.25;2.80;;;;;;;1.50;100.00;98171.56;5061954;28;20025;-93
2023/01/15 21:11:11;;;;;;;10.82;3.03;;;;;;;1.54;100.00;98173.03;5057528;28;20029;-93
2023/01/15 21:13:43;;;;;;;6.72;3.22;;;;;;;1.47;100.00;98171.75;5062814;28;20092;-93
2023/01/15 21:16:09;;;;;;;;;;;;;;;1.53;100.00;98166.28;5062564;28;20037;-93
2023/01/15 21:18:36;;;;;;;11.30;2.95;;;;;;;1.32;100.00;98137.00;5067794;28;19916;-94
2023/01/15 21:21:07;;;;;;;8.70;2.80;;;;;;;1.44;100.00;98127.00;5064063;28;20051;-93
2023/01/15 21:23:33;;;;;;;9.65;2.50;;;;;;;1.46;100.00;98134.50;5060722;28;20059;-93
2023/01/15 21:26:00;;;;;;;8.73;2.55;;;;;;;1.45;100.00;98121.00;5068169;28;20036;-93
2023/01/15 21:28:26;;;;;;;15.82;3.92;;;;;;;1.52;100.00;98118.91;5070628;28;20028;-93
2023/01/15 21:30:51;;;;;;;21.00;5.65;;;;;;;1.55;100.00;98115.38;5070984;28;20157;-92
2023/01/15 21:33:18;;;;;;;23.85;3.63;;;;;;;1.47;100.00;98090.41;5065731;28;20557;-93
2023/01/15 21:35:43;;;;;;;15.25;2.90;;;;;;;1.65;100.00;98109.66;5069242;28;20032;-92
2023/01/15 21:38:09;;;;;;;14.65;3.38;;;;;;;1.48;100.00;98072.50;5071237;28;20029;-92
2023/01/15 21:40:38;;;;;;;10.25;3.20;;;;;;;1.69;100.00;98095.88;5071196;28;20477;-92
2023/01/15 21:45:49;;;;;;;15.27;2.83;;;;;;;1.64;100.00;98079.25;5073563;28;20090;-93
2023/01/15 21:48:16;;;;;;;10.23;3.22;;;;;;;1.53;100.00;98031.56;5071732;28;20028;-92
2023/01/15 21:50:42;;;;;;;9.20;2.35;;;;;;;1.64;100.00;98041.94;5071632;28;20020;-92
2023/01/15 21:53:07;;;;;;;20.60;3.28;;;;;;;1.80;100.00;98026.56;5071609;28;20021;-92
2023/01/15 21:55:33;;;;;;;15.05;2.85;;;;;;;1.97;100.00;98038.25;5071825;28;20612;-93
2023/01/15 21:57:59;;;;;;;23.00;3.80;;;;;;;1.88;100.00;98015.94;5071909;28;20027;-93
2023/01/15 22:00:25;;;;;;;12.02;3.08;;;;;;;2.01;100.00;98024.44;5071580;28;20115;-92
2023/01/15 22:02:50;;;;;;;21.63;3.53;;;;;;;2.10;100.00;98006.06;5072533;28;20131;-93
2023/01/15 22:05:16;;;;;;;18.50;6.15;;;;;;;2.12;100.00;97985.59;5071638;28;20025;-93
2023/01/15 22:07:41;;;;;;;16.90;3.80;;;;;;;2.18;100.00;97974.25;5071334;28;20466;-92
2023/01/15 22:10:07;;;;;;;18.90;2.75;;;;;;;2.53;100.00;97972.81;5072034;28;20035;-92
2023/01/15 22:12:38;;;;;;;11.63;2.78;;;;;;;2.43;100.00;97943.78;5071523;28;20051;-93
2023/01/15 22:15:03;;;;;;;18.25;5.60;;;;;;;2.57;100.00;97961.53;5071510;28;20055;-92
2023/01/15 22:17:29;;;;;;;20.55;4.05;;;;;;;2.52;100.00;97934.72;5071660;28;20033;-92
2023/01/15 22:19:55;;;;;;;17.15;5.03;;;;;;;2.45;100.00;97929.22;5071581;28;20028;-92
2023/01/15 22:22:21;;;;;;;17.33;2.60;;;;;;;2.47;100.00;97924.03;5071578;28;20066;-92
2023/01/15 22:24:47;;;;;;;16.35;2.67;;;;;;;2.63;100.00;97913.66;5071350;28;20313;-92
2023/01/15 22:27:14;;;;;;;13.13;2.95;;;;;;;2.67;100.00;97905.72;5071456;28;20186;-93
2023/01/15 22:29:41;;;;;;;17.55;2.85;;;;;;;2.67;100.00;97894.72;5072394;28;20032;-92
2023/01/15 22:32:09;;;;;;;14.60;3.08;;;;;;;2.68;100.00;97888.69;5071138;28;20039;-93
2023/01/15 22:34:35;;;;;;;13.82;3.15;;;;;;;2.77;100.00;97876.16;5071450;28;20034;-92
2023/01/15 22:37:01;;;;;;;18.92;2.83;;;;;;;2.89;100.00;97868.63;5071278;28;20024;-93
2023/01/15 22:39:28;;;;;;;10.45;2.80;;;;;;;3.01;100.00;97862.72;5071236;28;20024;-92
2023/01/15 22:44:38;;;;;;;20.00;2.88;;;;;;;2.84;100.00;97840.91;5072517;28;20031;-92
2023/01/15 22:47:04;;;;;;;13.98;3.13;;;;;;;2.91;100.00;97847.22;5070917;28;20028;-94
2023/01/15 22:49:30;;;;;;;15.25;2.58;;;;;;;2.85;100.00;97834.91;5071329;28;20086;-93
2023/01/15 22:51:55;;;;;;;14.90;2.63;;;;;;;2.92;100.00;97822.56;5071185;28;20029;-92
2023/01/15 22:54:21;;;;;;;15.68;2.22;;;;;;;3.08;100.00;97827.44;5071319;28;20095;-93
2023/01/15 22:56:47;;;;;;;20.20;2.75;;;;;;;3.16;100.00;97815.78;5072165;28;20054;-93
2023/01/15 22:59:14;;;;;;;17.40;2.47;;;;;;;3.20;100.00;97808.75;5070778;28;20032;-93
2023/01/15 23:01:40;;;;;;;24.08;2.60;;;;;;;3.07;100.00;97790.13;5071372;28;20024;-93
2023/01/15 23:04:20;;;;;;;11.55;2.35;;;;;;;3.21;100.00;97784.88;5071151;28;20020;-92
2023/01/15 23:06:46;;;;;;;12.25;2.08;;;;;;;3.10;100.00;97769.53;5070857;28;20051;-93
2023/01/15 23:09:12;;;;;;;20.48;3.95;;;;;;;3.16;100.00;97769.91;5070900;28;20527;-93
2023/01/15 23:11:38;;;;;;;15.68;2.40;;;;;;;3.32;100.00;97769.66;5070629;28;20115;-92
2023/01/15 23:14:05;;;;;;;11.88;2.00;;;;;;;3.38;100.00;97768.41;5070903;28;20052;-93
2023/01/15 23:16:31;;;;;;;8.80;2.10;;;;;;;3.21;100.00;97749.19;5070713;28;20029;-92
2023/01/15 23:18:56;;;;;;;10.32;2.35;;;;;;;3.27;100.00;97761.53;5071002;28;20035;-92
2023/01/15 23:21:24;;;;;;;11.75;2.00;;;;;;;3.38;100.00;97746.25;5070733;28;20063;-92
2023/01/15 23:23:57;;;;;;;13.77;3.25;;;;;;;3.30;100.00;97746.00;5070817;28;20052;-93
2023/01/15 23:26:24;;;;;;;11.30;1.92;;;;;;;3.17;100.00;97727.38;5070969;28;20020;-93
2023/01/15 23:28:50;;;;;;;16.75;3.05;;;;;;;3.15;100.00;97722.41;5070816;28;20024;-93
2023/01/15 23:31:17;;;;;;;10.88;1.95;;;;;;;3.21;100.00;97721.16;5070861;28;20017;-92
2023/01/15 23:33:43;;;;;;;12.32;1.88;;;;;;;3.24;100.00;97731.13;5070638;28;20058;-92
2023/01/15 23:36:10;;;;;;;18.88;2.65;;;;;;;3.16;100.00;97724.03;5071320;28;20029;-94
2023/01/15 23:38:35;;;;;;;16.40;2.55;;;;;;;3.08;100.00;97715.31;5070967;28;20389;-93
2023/01/15 23:41:14;;;;;;;14.50;3.75;;;;;;;3.08;100.00;97728.06;5070728;28;20116;-94
2023/01/15 23:46:31;;;;;;;19.38;3.20;;;;;;;3.02;100.00;97710.63;5076075;28;20398;-93
2023/01/15 23:49:05;;;;;;;22.67;3.30;;;;;;;3.04;100.00;97693.50;5074535;28;20025;-93
2023/01/15 23:51:32;;;;;;;12.55;2.45;;;;;;;3.04;100.00;97693.50;5075812;28;20063;-93
2023/01/15 23:53:58;;;;;;;18.88;3.00;;;;;;;2.93;100.00;97671.34;5074567;28;20021;-93
2023/01/15 23:56:24;;;;;;;13.05;2.05;;;;;;;3.03;100.00;97668.97;5074559;28;20116;-94
2023/01/15 23:58:50;;;;;;;13.75;2.63;;;;;;;3.16;100.00;97674.81;5074515;28;20101;-93
